createdAt,value
2022-09-25T00:00:34.705Z,100
2022-09-25T00:01:34.812Z,100
2022-09-25T00:02:34.860Z,100
2022-09-25T00:03:34.709Z,100
2022-09-25T00:04:34.706Z,100
2022-09-25T00:05:34.708Z,100
2022-09-25T00:06:34.717Z,100
2022-09-25T00:07:34.710Z,100
2022-09-25T00:08:34.703Z,100
2022-09-25T00:09:34.779Z,100
2022-09-25T00:10:34.700Z,100
2022-09-25T00:11:34.705Z,100
2022-09-25T00:12:34.711Z,100
2022-09-25T00:13:34.707Z,100
2022-09-25T00:14:34.713Z,100
2022-09-25T00:15:34.710Z,100
2022-09-25T00:16:34.747Z,100
2022-09-25T00:17:34.746Z,100
2022-09-25T00:18:34.713Z,100
2022-09-25T00:19:34.692Z,100
2022-09-25T00:20:34.704Z,100
2022-09-25T00:21:34.700Z,100
2022-09-25T00:22:34.700Z,100
2022-09-25T00:23:34.698Z,100
2022-09-25T00:24:34.727Z,100
2022-09-25T00:25:34.750Z,100
2022-09-25T00:26:34.705Z,100
2022-09-25T00:27:34.730Z,100
2022-09-25T00:28:34.715Z,100
2022-09-25T00:29:34.711Z,100
2022-09-25T00:30:34.791Z,100
2022-09-25T00:31:34.703Z,100
2022-09-25T00:32:34.710Z,100
2022-09-25T00:33:34.741Z,100
2022-09-25T00:34:34.706Z,100
2022-09-25T00:35:34.721Z,100
2022-09-25T00:36:34.714Z,100
2022-09-25T00:37:34.705Z,100
2022-09-25T00:38:34.773Z,100
2022-09-25T00:39:34.715Z,100
2022-09-25T00:40:34.980Z,100
2022-09-25T00:41:34.746Z,100
2022-09-25T00:42:34.701Z,100
2022-09-25T00:43:34.702Z,100
2022-09-25T00:44:34.728Z,100
2022-09-25T00:45:34.697Z,100
2022-09-25T00:46:34.810Z,100
2022-09-25T00:47:34.701Z,100
2022-09-25T00:48:34.761Z,100
2022-09-25T00:49:34.710Z,100
2022-09-25T00:50:34.709Z,100
2022-09-25T00:51:34.691Z,100
2022-09-25T00:52:34.706Z,100
2022-09-25T00:53:34.714Z,100
2022-09-25T00:54:34.719Z,100
2022-09-25T00:55:34.737Z,100
2022-09-25T00:56:34.755Z,100
2022-09-25T00:57:34.693Z,100
2022-09-25T00:58:34.710Z,100
2022-09-25T00:59:34.700Z,100
2022-09-25T01:00:34.708Z,100
2022-09-25T01:01:34.777Z,100
2022-09-25T01:02:34.772Z,100
2022-09-25T01:03:34.722Z,100
2022-09-25T01:04:34.743Z,100
2022-09-25T01:05:34.707Z,100
2022-09-25T01:06:34.702Z,100
2022-09-25T01:07:34.706Z,100
2022-09-25T01:08:34.704Z,100
2022-09-25T01:09:34.735Z,100
2022-09-25T01:10:34.708Z,100
2022-09-25T01:11:35.043Z,100
2022-09-25T01:12:34.743Z,100
2022-09-25T01:13:34.682Z,100
2022-09-25T01:14:34.705Z,100
2022-09-25T01:15:34.757Z,100
2022-09-25T01:16:34.794Z,100
2022-09-25T01:17:34.698Z,100
2022-09-25T01:18:34.790Z,100
2022-09-25T01:19:34.761Z,100
2022-09-25T01:20:34.749Z,100
2022-09-25T01:21:34.693Z,100
2022-09-25T01:22:34.722Z,100
2022-09-25T01:23:34.710Z,100
2022-09-25T01:24:34.698Z,100
2022-09-25T01:25:34.702Z,100
2022-09-25T01:26:34.903Z,100
2022-09-25T01:27:35.189Z,100
2022-09-25T01:28:34.706Z,100
2022-09-25T01:29:34.720Z,100
2022-09-25T01:30:34.761Z,100
2022-09-25T01:31:34.717Z,100
2022-09-25T01:32:34.696Z,100
2022-09-25T01:33:34.695Z,100
2022-09-25T01:34:34.740Z,100
2022-09-25T01:35:34.750Z,100
2022-09-25T01:36:34.711Z,100
2022-09-25T01:37:34.711Z,100
2022-09-25T01:38:34.725Z,100
2022-09-25T01:39:34.702Z,100
2022-09-25T01:40:34.787Z,100
2022-09-25T01:41:34.719Z,100
2022-09-25T01:42:34.742Z,100
2022-09-25T01:43:34.749Z,100
2022-09-25T01:44:34.711Z,100
2022-09-25T01:45:34.729Z,100
2022-09-25T01:46:34.821Z,100
2022-09-25T01:47:34.704Z,100
2022-09-25T01:48:34.748Z,100
2022-09-25T01:49:34.711Z,100
2022-09-25T01:50:34.718Z,100
2022-09-25T01:51:34.751Z,100
2022-09-25T01:52:34.712Z,100
2022-09-25T01:53:34.735Z,100
2022-09-25T01:54:34.718Z,100
2022-09-25T01:55:34.709Z,100
2022-09-25T01:56:34.702Z,100
2022-09-25T01:57:34.944Z,100
2022-09-25T01:58:34.760Z,100
2022-09-25T01:59:34.798Z,100
2022-09-25T02:00:34.699Z,100
2022-09-25T02:01:34.914Z,100
2022-09-25T02:02:34.740Z,100
2022-09-25T02:03:34.708Z,100
2022-09-25T02:04:34.709Z,100
2022-09-25T02:05:34.735Z,100
2022-09-25T02:06:34.808Z,100
2022-09-25T02:07:34.711Z,100
2022-09-25T02:08:34.712Z,100
2022-09-25T02:09:34.708Z,100
2022-09-25T02:10:34.713Z,100
2022-09-25T02:11:34.701Z,100
2022-09-25T02:12:34.712Z,100
2022-09-25T02:13:34.761Z,100
2022-09-25T02:14:34.762Z,100
2022-09-25T02:15:34.706Z,100
2022-09-25T02:16:34.771Z,100
2022-09-25T02:17:34.718Z,100
2022-09-25T02:18:34.722Z,100
2022-09-25T02:19:34.715Z,100
2022-09-25T02:20:34.719Z,100
2022-09-25T02:21:34.734Z,100
2022-09-25T02:22:34.739Z,100
2022-09-25T02:23:34.716Z,100
2022-09-25T02:24:34.710Z,100
2022-09-25T02:25:34.716Z,100
2022-09-25T02:26:34.712Z,100
2022-09-25T02:27:34.729Z,100
2022-09-25T02:28:34.717Z,100
2022-09-25T02:29:34.742Z,100
2022-09-25T02:30:34.811Z,100
2022-09-25T02:31:34.709Z,100
2022-09-25T02:32:34.709Z,100
2022-09-25T02:33:34.732Z,100
2022-09-25T02:34:34.719Z,100
2022-09-25T02:35:34.747Z,100
2022-09-25T02:36:34.709Z,100
2022-09-25T02:37:34.728Z,100
2022-09-25T02:38:34.764Z,100
2022-09-25T02:39:34.716Z,100
2022-09-25T02:40:34.794Z,100
2022-09-25T02:41:34.730Z,100
2022-09-25T02:42:34.705Z,100
2022-09-25T02:43:34.721Z,100
2022-09-25T02:44:35.076Z,100
2022-09-25T02:45:34.810Z,100
2022-09-25T02:46:34.703Z,100
2022-09-25T02:47:34.756Z,100
2022-09-25T02:48:34.721Z,100
2022-09-25T02:49:34.715Z,100
2022-09-25T02:50:34.715Z,100
2022-09-25T02:51:34.708Z,100
2022-09-25T02:52:34.731Z,100
2022-09-25T02:53:34.756Z,100
2022-09-25T02:54:34.710Z,100
2022-09-25T02:55:34.715Z,100
2022-09-25T02:56:34.713Z,100
2022-09-25T02:57:34.707Z,100
2022-09-25T02:58:34.713Z,100
2022-09-25T02:59:34.718Z,100
2022-09-25T03:00:34.731Z,100
2022-09-25T03:01:34.830Z,100
2022-09-25T03:02:34.852Z,100
2022-09-25T03:03:34.719Z,100
2022-09-25T03:04:34.721Z,100
2022-09-25T03:05:34.718Z,100
2022-09-25T03:06:34.735Z,100
2022-09-25T03:07:34.726Z,100
2022-09-25T03:08:34.722Z,100
2022-09-25T03:09:34.763Z,100
2022-09-25T03:10:34.723Z,100
2022-09-25T03:11:35.063Z,100
2022-09-25T03:12:34.719Z,100
2022-09-25T03:13:34.788Z,100
2022-09-25T03:14:34.727Z,100
2022-09-25T03:15:34.755Z,100
2022-09-25T03:16:35.091Z,100
2022-09-25T03:17:34.923Z,100
2022-09-25T03:18:34.720Z,100
2022-09-25T03:19:34.734Z,100
2022-09-25T03:20:34.793Z,100
2022-09-25T03:21:34.736Z,100
2022-09-25T03:22:34.721Z,100
2022-09-25T03:23:34.724Z,100
2022-09-25T03:24:34.769Z,100
2022-09-25T03:25:34.727Z,100
2022-09-25T03:26:34.719Z,100
2022-09-25T03:27:34.724Z,100
2022-09-25T03:28:34.722Z,100
2022-09-25T03:29:34.718Z,100
2022-09-25T03:30:34.820Z,100
2022-09-25T03:31:34.737Z,100
2022-09-25T03:32:34.765Z,100
2022-09-25T03:33:34.723Z,100
2022-09-25T03:34:34.730Z,100
2022-09-25T03:35:34.723Z,100
2022-09-25T03:36:34.728Z,100
2022-09-25T03:37:34.704Z,100
2022-09-25T03:38:34.721Z,100
2022-09-25T03:39:34.734Z,100
2022-09-25T03:40:34.834Z,100
2022-09-25T03:41:34.714Z,100
2022-09-25T03:42:34.723Z,100
2022-09-25T03:43:34.722Z,100
2022-09-25T03:44:34.718Z,100
2022-09-25T03:45:34.761Z,100
2022-09-25T03:46:34.820Z,100
2022-09-25T03:47:34.726Z,100
2022-09-25T03:48:34.771Z,100
2022-09-25T03:49:34.721Z,100
2022-09-25T03:50:34.723Z,100
2022-09-25T03:51:34.729Z,100
2022-09-25T03:52:34.718Z,100
2022-09-25T03:53:34.720Z,100
2022-09-25T03:54:34.718Z,100
2022-09-25T03:55:34.764Z,100
2022-09-25T03:56:34.717Z,100
2022-09-25T03:57:34.726Z,100
2022-09-25T03:58:34.991Z,100
2022-09-25T03:59:34.726Z,100
2022-09-25T04:00:34.715Z,100
2022-09-25T04:01:34.849Z,100
2022-09-25T04:02:34.802Z,100
2022-09-25T04:03:34.780Z,100
2022-09-25T04:04:34.718Z,100
2022-09-25T04:05:34.717Z,100
2022-09-25T04:06:34.725Z,100
2022-09-25T04:07:34.752Z,100
2022-09-25T04:08:34.718Z,100
2022-09-25T04:09:34.733Z,100
2022-09-25T04:13:36.914Z,100
2022-09-25T04:16:34.821Z,100
2022-09-25T04:17:34.742Z,100
2022-09-25T04:18:34.914Z,100
2022-09-25T04:19:34.761Z,100
2022-09-25T04:20:34.734Z,100
2022-09-25T04:21:34.721Z,100
2022-09-25T04:22:34.724Z,100
2022-09-25T04:23:34.714Z,100
2022-09-25T04:24:34.721Z,100
2022-09-25T04:25:34.733Z,100
2022-09-25T04:26:34.770Z,100
2022-09-25T04:27:34.733Z,100
2022-09-25T04:28:34.720Z,100
2022-09-25T04:29:34.725Z,100
2022-09-25T04:30:34.802Z,100
2022-09-25T04:31:34.808Z,100
2022-09-25T04:32:34.721Z,100
2022-09-25T04:33:34.767Z,100
2022-09-25T04:34:34.762Z,100
2022-09-25T04:35:34.717Z,100
2022-09-25T04:36:34.716Z,100
2022-09-25T04:37:35.056Z,100
2022-09-25T04:38:35.062Z,100
2022-09-25T04:39:34.729Z,100
2022-09-25T04:40:34.830Z,100
2022-09-25T04:41:34.743Z,100
2022-09-25T04:42:34.805Z,100
2022-09-25T04:43:34.743Z,100
2022-09-25T04:44:34.749Z,100
2022-09-25T04:45:34.787Z,100
2022-09-25T04:46:34.812Z,100
2022-09-25T04:47:34.720Z,100
2022-09-25T04:48:34.834Z,100
2022-09-25T04:49:34.737Z,100
2022-09-25T04:50:34.770Z,100
2022-09-25T04:51:34.724Z,100
2022-09-25T04:52:34.733Z,100
2022-09-25T04:53:34.731Z,100
2022-09-25T04:54:34.725Z,100
2022-09-25T04:55:34.766Z,100
2022-09-25T04:56:34.761Z,100
2022-09-25T04:57:57.344Z,100
2022-09-25T04:58:34.758Z,100
2022-09-25T04:59:34.712Z,100
2022-09-25T05:00:34.727Z,100
2022-09-25T05:01:34.912Z,100
2022-09-25T05:02:34.907Z,100
2022-09-25T05:03:34.843Z,100
2022-09-25T05:04:34.737Z,100
2022-09-25T05:05:34.768Z,100
2022-09-25T05:06:34.727Z,100
2022-09-25T05:07:34.724Z,100
2022-09-25T05:08:34.731Z,100
2022-09-25T05:09:34.728Z,100
2022-09-25T05:10:34.741Z,100
2022-09-25T05:11:34.725Z,100
2022-09-25T05:12:34.867Z,100
2022-09-25T05:13:34.904Z,100
2022-09-25T05:14:34.975Z,100
2022-09-25T05:15:34.885Z,100
2022-09-25T05:16:34.801Z,100
2022-09-25T05:17:34.734Z,100
2022-09-25T05:18:34.739Z,100
2022-09-25T05:19:34.769Z,100
2022-09-25T05:20:34.743Z,100
2022-09-25T05:21:34.770Z,100
2022-09-25T05:22:34.745Z,100
2022-09-25T05:23:34.720Z,100
2022-09-25T05:24:34.728Z,100
2022-09-25T05:25:34.722Z,100
2022-09-25T05:26:34.770Z,100
2022-09-25T05:27:34.740Z,100
2022-09-25T05:28:34.743Z,100
2022-09-25T05:29:34.770Z,100
2022-09-25T05:30:34.728Z,100
2022-09-25T05:31:34.951Z,100
2022-09-25T05:32:34.737Z,100
2022-09-25T05:33:34.721Z,100
2022-09-25T05:34:34.741Z,100
2022-09-25T05:35:34.719Z,100
2022-09-25T05:36:34.772Z,100
2022-09-25T05:37:34.807Z,100
2022-09-25T05:38:34.741Z,100
2022-09-25T05:39:34.721Z,100
2022-09-25T05:40:34.812Z,100
2022-09-25T05:41:34.754Z,100
2022-09-25T05:42:34.720Z,100
2022-09-25T05:43:34.723Z,100
2022-09-25T05:44:34.778Z,100
2022-09-25T05:45:34.750Z,100
2022-09-25T05:46:34.790Z,100
2022-09-25T05:47:34.723Z,100
2022-09-25T05:48:34.737Z,100
2022-09-25T05:49:34.737Z,100
2022-09-25T05:50:34.781Z,100
2022-09-25T05:51:34.725Z,100
2022-09-25T05:52:34.778Z,100
2022-09-25T05:53:34.735Z,100
2022-09-25T05:54:34.736Z,100
2022-09-25T05:55:34.720Z,100
2022-09-25T05:56:34.734Z,100
2022-09-25T05:57:34.733Z,100
2022-09-25T05:58:34.748Z,100
2022-09-25T05:59:34.759Z,100
2022-09-25T06:00:34.773Z,100
2022-09-25T06:01:34.785Z,100
2022-09-25T06:02:34.853Z,100
2022-09-25T06:03:34.728Z,100
2022-09-25T06:04:34.745Z,100
2022-09-25T06:05:34.732Z,100
2022-09-25T06:06:34.723Z,100
2022-09-25T06:07:34.729Z,100
2022-09-25T06:08:34.767Z,100
2022-09-25T06:09:34.723Z,100
2022-09-25T06:10:34.726Z,100
2022-09-25T06:11:34.732Z,100
2022-09-25T06:12:34.718Z,100
2022-09-25T06:13:35.012Z,100
2022-09-25T06:14:34.714Z,100
2022-09-25T06:15:34.737Z,100
2022-09-25T06:16:34.795Z,100
2022-09-25T06:17:34.736Z,100
2022-09-25T06:18:34.731Z,100
2022-09-25T06:19:34.758Z,100
2022-09-25T06:20:34.730Z,100
2022-09-25T06:21:34.760Z,100
2022-09-25T06:22:34.722Z,100
2022-09-25T06:23:34.775Z,100
2022-09-25T06:24:34.718Z,100
2022-09-25T06:25:34.741Z,100
2022-09-25T06:26:34.704Z,100
2022-09-25T06:27:34.727Z,100
2022-09-25T06:28:34.723Z,100
2022-09-25T06:29:34.742Z,100
2022-09-25T06:30:34.867Z,100
2022-09-25T06:31:34.857Z,100
2022-09-25T06:32:34.737Z,100
2022-09-25T06:33:34.740Z,100
2022-09-25T06:34:34.724Z,100
2022-09-25T06:35:34.738Z,100
2022-09-25T06:36:34.721Z,100
2022-09-25T06:37:34.730Z,100
2022-09-25T06:38:34.753Z,100
2022-09-25T06:39:34.769Z,100
2022-09-25T06:40:34.843Z,100
2022-09-25T06:41:34.743Z,100
2022-09-25T06:42:34.716Z,100
2022-09-25T06:43:34.725Z,100
2022-09-25T06:44:34.780Z,100
2022-09-25T06:45:34.724Z,100
2022-09-25T06:46:34.907Z,100
2022-09-25T06:47:34.771Z,100
2022-09-25T06:48:34.734Z,100
2022-09-25T06:49:34.728Z,100
2022-09-25T06:50:34.737Z,100
2022-09-25T06:51:34.747Z,100
2022-09-25T06:52:34.852Z,100
2022-09-25T06:53:34.761Z,100
2022-09-25T06:54:34.789Z,100
2022-09-25T06:55:34.750Z,100
2022-09-25T06:56:34.743Z,100
2022-09-25T06:57:34.757Z,100
2022-09-25T06:58:34.770Z,100
2022-09-25T06:59:34.733Z,100
2022-09-25T07:00:34.733Z,100
2022-09-25T07:01:34.802Z,100
2022-09-25T07:02:34.872Z,100
2022-09-25T07:03:34.734Z,100
2022-09-25T07:04:34.732Z,100
2022-09-25T07:05:34.763Z,100
2022-09-25T07:06:34.744Z,100
2022-09-25T07:07:34.734Z,100
2022-09-25T07:08:34.749Z,100
2022-09-25T07:09:34.777Z,100
2022-09-25T07:10:34.771Z,100
2022-09-25T07:11:34.743Z,100
2022-09-25T07:12:34.734Z,100
2022-09-25T07:13:34.849Z,100
2022-09-25T07:14:34.721Z,100
2022-09-25T07:15:34.802Z,100
2022-09-25T07:16:34.863Z,100
2022-09-25T07:17:34.773Z,100
2022-09-25T07:18:34.792Z,100
2022-09-25T07:19:34.764Z,100
2022-09-25T07:20:34.726Z,100
2022-09-25T07:21:34.732Z,100
2022-09-25T07:22:34.737Z,100
2022-09-25T07:23:34.766Z,100
2022-09-25T07:24:34.739Z,100
2022-09-25T07:25:34.784Z,100
2022-09-25T07:26:36.198Z,100
2022-09-25T07:27:34.724Z,100
2022-09-25T07:28:34.728Z,100
2022-09-25T07:29:34.772Z,100
2022-09-25T07:30:34.742Z,100
2022-09-25T07:31:34.859Z,100
2022-09-25T07:32:34.761Z,100
2022-09-25T07:33:34.776Z,100
2022-09-25T07:34:34.723Z,100
2022-09-25T07:35:34.755Z,100
2022-09-25T07:36:34.743Z,100
2022-09-25T07:37:34.729Z,100
2022-09-25T07:38:34.742Z,100
2022-09-25T07:39:34.745Z,100
2022-09-25T07:40:34.838Z,100
2022-09-25T07:41:34.768Z,100
2022-09-25T07:42:34.726Z,100
2022-09-25T07:43:34.844Z,100
2022-09-25T07:44:38.167Z,100
2022-09-25T07:45:34.736Z,100
2022-09-25T07:46:34.838Z,100
2022-09-25T07:47:34.739Z,100
2022-09-25T07:48:34.776Z,100
2022-09-25T07:49:34.780Z,100
2022-09-25T07:50:34.728Z,100
2022-09-25T07:51:34.752Z,100
2022-09-25T07:52:34.744Z,100
2022-09-25T07:53:34.732Z,100
2022-09-25T07:54:34.763Z,100
2022-09-25T07:55:34.747Z,100
2022-09-25T07:56:34.846Z,100
2022-09-25T07:57:34.803Z,100
2022-09-25T07:58:34.744Z,100
2022-09-25T07:59:34.744Z,100
2022-09-25T08:00:34.739Z,100
2022-09-25T08:01:38.213Z,100
2022-09-25T08:02:34.766Z,100
2022-09-25T08:03:34.738Z,100
2022-09-25T08:04:34.798Z,100
2022-09-25T08:05:34.741Z,100
2022-09-25T08:06:34.732Z,100
2022-09-25T08:07:34.733Z,100
2022-09-25T08:08:34.761Z,100
2022-09-25T08:09:34.728Z,100
2022-09-25T08:10:34.748Z,100
2022-09-25T08:11:34.747Z,100
2022-09-25T08:12:34.812Z,100
2022-09-25T08:13:34.731Z,100
2022-09-25T08:14:34.735Z,100
2022-09-25T08:15:34.818Z,100
2022-09-25T08:16:34.745Z,100
2022-09-25T08:17:34.727Z,100
2022-09-25T08:18:34.735Z,100
2022-09-25T08:19:34.749Z,100
2022-09-25T08:20:34.772Z,100
2022-09-25T08:21:34.745Z,100
2022-09-25T08:22:34.846Z,100
2022-09-25T08:23:34.731Z,100
2022-09-25T08:24:34.729Z,100
2022-09-25T08:25:34.773Z,100
2022-09-25T08:26:34.740Z,100
2022-09-25T08:27:34.738Z,100
2022-09-25T08:28:34.805Z,100
2022-09-25T08:29:34.732Z,100
2022-09-25T08:30:34.742Z,100
2022-09-25T08:31:34.871Z,100
2022-09-25T08:32:34.738Z,100
2022-09-25T08:33:34.748Z,100
2022-09-25T08:34:42.171Z,100
2022-09-25T08:35:34.785Z,100
2022-09-25T08:36:34.780Z,100
2022-09-25T08:37:34.742Z,100
2022-09-25T08:38:34.741Z,100
2022-09-25T08:39:34.743Z,100
2022-09-25T08:40:34.799Z,100
2022-09-25T08:41:34.734Z,100
2022-09-25T08:42:34.731Z,100
2022-09-25T08:43:34.785Z,100
2022-09-25T08:44:34.741Z,100
2022-09-25T08:45:34.742Z,100
2022-09-25T08:46:34.796Z,100
2022-09-25T08:47:34.729Z,100
2022-09-25T08:48:34.739Z,100
2022-09-25T08:49:34.744Z,100
2022-09-25T08:50:34.754Z,100
2022-09-25T08:51:34.782Z,100
2022-09-25T08:52:34.728Z,100
2022-09-25T08:53:34.741Z,100
2022-09-25T08:54:34.741Z,100
2022-09-25T08:55:34.747Z,100
2022-09-25T08:56:34.770Z,100
2022-09-25T08:57:34.735Z,100
2022-09-25T08:58:34.808Z,100
2022-09-25T08:59:34.774Z,100
2022-09-25T09:00:34.736Z,100
2022-09-25T09:01:34.813Z,100
2022-09-25T09:02:34.776Z,100
2022-09-25T09:03:34.732Z,100
2022-09-25T09:04:34.747Z,100
2022-09-25T09:05:34.738Z,100
2022-09-25T09:06:34.746Z,100
2022-09-25T09:07:34.791Z,100
2022-09-25T09:08:34.737Z,100
2022-09-25T09:09:34.745Z,100
2022-09-25T09:10:34.775Z,100
2022-09-25T09:11:34.761Z,100
2022-09-25T09:12:34.749Z,100
2022-09-25T09:13:34.750Z,100
2022-09-25T09:14:34.788Z,100
2022-09-25T09:15:34.848Z,100
2022-09-25T09:16:34.760Z,100
2022-09-25T09:17:34.731Z,100
2022-09-25T09:18:34.751Z,100
2022-09-25T09:19:34.740Z,100
2022-09-25T09:20:34.748Z,100
2022-09-25T09:21:34.744Z,100
2022-09-25T09:22:34.845Z,100
2022-09-25T09:23:34.737Z,100
2022-09-25T09:24:34.741Z,100
2022-09-25T09:25:34.726Z,100
2022-09-25T09:26:34.743Z,100
2022-09-25T09:27:34.744Z,100
2022-09-25T09:28:34.737Z,100
2022-09-25T09:29:34.763Z,100
2022-09-25T09:30:35.008Z,100
2022-09-25T09:31:34.734Z,100
2022-09-25T09:32:34.740Z,100
2022-09-25T09:33:34.736Z,100
2022-09-25T09:35:01.200Z,100
2022-09-25T09:35:34.752Z,100
2022-09-25T09:36:34.743Z,100
2022-09-25T09:37:34.759Z,100
2022-09-25T09:38:34.785Z,100
2022-09-25T09:39:34.751Z,100
2022-09-25T09:40:34.795Z,100
2022-09-25T09:41:34.747Z,100
2022-09-25T09:42:34.743Z,100
2022-09-25T09:43:34.759Z,100
2022-09-25T09:44:34.745Z,100
2022-09-25T09:45:34.745Z,100
2022-09-25T09:46:34.884Z,100
2022-09-25T09:47:34.729Z,100
2022-09-25T09:48:34.742Z,100
2022-09-25T09:49:34.727Z,100
2022-09-25T09:50:37.837Z,100
2022-09-25T09:51:34.740Z,100
2022-09-25T09:52:34.735Z,100
2022-09-25T09:53:34.797Z,100
2022-09-25T09:54:34.738Z,100
2022-09-25T09:55:34.743Z,100
2022-09-25T09:56:34.747Z,100
2022-09-25T09:57:34.776Z,100
2022-09-25T09:58:34.876Z,100
2022-09-25T09:59:34.755Z,100
2022-09-25T10:00:34.761Z,100
2022-09-25T10:01:42.700Z,100
2022-09-25T10:02:34.894Z,100
2022-09-25T10:03:34.762Z,100
2022-09-25T10:04:34.729Z,100
2022-09-25T10:05:34.733Z,100
2022-09-25T10:06:34.739Z,100
2022-09-25T10:07:34.735Z,100
2022-09-25T10:08:34.766Z,100
2022-09-25T10:09:34.791Z,100
2022-09-25T10:10:34.750Z,100
2022-09-25T10:11:34.745Z,100
2022-09-25T10:12:34.749Z,100
2022-09-25T10:13:34.737Z,100
2022-09-25T10:14:34.756Z,100
2022-09-25T10:15:34.789Z,100
2022-09-25T10:16:34.803Z,100
2022-09-25T10:17:34.785Z,100
2022-09-25T10:18:34.772Z,100
2022-09-25T10:19:34.808Z,100
2022-09-25T10:20:34.912Z,100
2022-09-25T10:21:34.815Z,100
2022-09-25T10:22:34.746Z,100
2022-09-25T10:23:34.746Z,100
2022-09-25T10:24:34.751Z,100
2022-09-25T10:25:34.786Z,100
2022-09-25T10:26:34.755Z,100
2022-09-25T10:27:35.035Z,100
2022-09-25T10:28:35.059Z,100
2022-09-25T10:29:35.153Z,100
2022-09-25T10:30:34.749Z,100
2022-09-25T10:31:34.757Z,100
2022-09-25T10:32:34.777Z,100
2022-09-25T10:33:34.743Z,100
2022-09-25T10:34:34.755Z,100
2022-09-25T10:35:34.750Z,100
2022-09-25T10:36:34.838Z,100
2022-09-25T10:37:34.749Z,100
2022-09-25T10:38:34.740Z,100
2022-09-25T10:39:50.417Z,100
2022-09-25T10:40:34.842Z,100
2022-09-25T10:41:34.738Z,100
2022-09-25T10:42:34.766Z,100
2022-09-25T10:43:34.747Z,97.5
2022-09-25T10:44:34.751Z,94.2
2022-09-25T10:45:34.737Z,100
2022-09-25T10:46:34.811Z,97.9
2022-09-25T10:47:34.752Z,99.5
2022-09-25T10:48:34.807Z,98.7
2022-09-25T10:49:34.746Z,96.8
2022-09-25T10:50:34.757Z,97.8
2022-09-25T10:51:34.747Z,99.1
2022-09-25T10:52:34.747Z,94.1
2022-09-25T10:53:34.759Z,95.9
2022-09-25T10:54:37.816Z,94
2022-09-25T10:55:34.769Z,93.8
2022-09-25T10:56:34.783Z,94.9
2022-09-25T10:57:35.070Z,96.3
2022-09-25T10:58:34.749Z,96.3
2022-09-25T10:59:34.752Z,96.1
2022-09-25T11:00:34.869Z,95.5
2022-09-25T11:01:34.795Z,94.8
2022-09-25T11:02:34.850Z,93.8
2022-09-25T11:03:34.794Z,93.2
2022-09-25T11:04:34.907Z,95
2022-09-25T11:05:34.961Z,90.9
2022-09-25T11:06:34.942Z,93.1
2022-09-25T11:07:34.849Z,88.4
2022-09-25T11:08:34.967Z,85.2
2022-09-25T11:09:34.749Z,86.7
2022-09-25T11:10:34.773Z,81.4
2022-09-25T11:11:34.806Z,77.7
2022-09-25T11:12:34.763Z,79.3
2022-09-25T11:13:34.770Z,73.5
2022-09-25T11:14:34.764Z,73.5
2022-09-25T11:15:34.751Z,75
2022-09-25T11:16:34.793Z,70.2
2022-09-25T11:17:34.740Z,76.2
2022-09-25T11:18:34.754Z,76.5
2022-09-25T11:19:34.792Z,74.5
2022-09-25T11:20:34.754Z,74.5
2022-09-25T11:21:34.753Z,76.2
2022-09-25T11:22:34.754Z,68.2
2022-09-25T11:23:34.746Z,68.4
2022-09-25T11:24:34.768Z,70.1
2022-09-25T11:25:34.775Z,70
2022-09-25T11:26:34.801Z,76.6
2022-09-25T11:27:34.877Z,68.9
2022-09-25T11:28:34.750Z,70.9
2022-09-25T11:29:34.755Z,63.5
2022-09-25T11:30:34.826Z,64.6
2022-09-25T11:31:34.771Z,65.9
2022-09-25T11:32:34.757Z,67
2022-09-25T11:33:34.755Z,71.3
2022-09-25T11:34:34.813Z,73.6
2022-09-25T11:35:34.812Z,72.8
2022-09-25T11:36:34.760Z,72.8
2022-09-25T11:37:34.763Z,73.7
2022-09-25T11:38:34.767Z,74.4
2022-09-25T11:39:34.744Z,70.9
2022-09-25T11:40:34.832Z,67.2
2022-09-25T11:41:34.752Z,65.9
2022-09-25T11:42:34.828Z,68.1
2022-09-25T11:43:34.758Z,67
2022-09-25T11:44:34.757Z,66
2022-09-25T11:45:34.748Z,64.4
2022-09-25T11:46:34.758Z,72.8
2022-09-25T11:47:34.755Z,70.5
2022-09-25T11:48:34.767Z,72.9
2022-09-25T11:49:34.805Z,69.9
2022-09-25T11:50:34.797Z,71.3
2022-09-25T11:51:34.757Z,70.8
2022-09-25T11:52:34.825Z,71.3
2022-09-25T11:53:34.755Z,72.8
2022-09-25T11:54:35.136Z,74.8
2022-09-25T11:55:34.855Z,75.9
2022-09-25T11:56:34.778Z,74.5
2022-09-25T11:57:35.204Z,70.5
2022-09-25T11:58:34.797Z,66.9
2022-09-25T11:59:34.806Z,69.7
2022-09-25T12:00:34.745Z,66.9
2022-09-25T12:01:34.846Z,65.5
2022-09-25T12:02:34.893Z,64.9
2022-09-25T12:03:34.744Z,66.8
2022-09-25T12:04:39.378Z,66.3
2022-09-25T12:05:34.825Z,67.8
2022-09-25T12:06:34.775Z,66.6
2022-09-25T12:07:34.763Z,59
2022-09-25T12:08:34.739Z,59.3
2022-09-25T12:09:34.740Z,56.3
2022-09-25T12:10:34.773Z,56.3
2022-09-25T12:11:34.761Z,55.5
2022-09-25T12:12:34.841Z,55.4
2022-09-25T12:13:34.804Z,56.2
2022-09-25T12:14:34.763Z,53
2022-09-25T12:15:34.756Z,51.2
2022-09-25T12:16:34.808Z,52.3
2022-09-25T12:17:34.745Z,50.2
2022-09-25T12:18:34.807Z,49.1
2022-09-25T12:19:34.780Z,48.9
2022-09-25T12:20:34.807Z,48.4
2022-09-25T12:21:34.805Z,49.6
2022-09-25T12:22:34.757Z,48.9
2022-09-25T12:23:34.767Z,50
2022-09-25T12:24:34.758Z,50.3
2022-09-25T12:25:34.751Z,48.2
2022-09-25T12:26:34.767Z,52.9
2022-09-25T12:27:34.750Z,52.2
2022-09-25T12:28:34.817Z,52.6
2022-09-25T12:29:34.765Z,53.2
2022-09-25T12:30:34.877Z,55.1
2022-09-25T12:31:34.772Z,55.4
2022-09-25T12:32:34.802Z,55.4
2022-09-25T12:33:34.782Z,55.3
2022-09-25T12:34:34.764Z,56.3
2022-09-25T12:35:34.755Z,56.4
2022-09-25T12:36:34.793Z,55.5
2022-09-25T12:37:34.758Z,53.7
2022-09-25T12:38:34.765Z,54.8
2022-09-25T12:39:34.742Z,53.9
2022-09-25T12:40:34.842Z,54.6
2022-09-25T12:41:34.763Z,53.2
2022-09-25T12:42:34.743Z,54.2
2022-09-25T12:43:34.812Z,54.8
2022-09-25T12:44:34.790Z,58.4
2022-09-25T12:45:34.787Z,57.1
2022-09-25T12:46:34.789Z,58.7
2022-09-25T12:47:34.826Z,58.4
2022-09-25T12:48:34.790Z,59.9
2022-09-25T12:49:34.761Z,60.7
2022-09-25T12:50:34.765Z,61.9
2022-09-25T12:51:34.785Z,61.7
2022-09-25T12:52:34.790Z,59
2022-09-25T12:53:34.770Z,55.1
2022-09-25T12:54:34.773Z,51.6
2022-09-25T12:55:34.760Z,49.7
2022-09-25T12:56:34.761Z,45.1
2022-09-25T12:57:34.823Z,43.9
2022-09-25T12:58:34.755Z,43.1
2022-09-25T12:59:34.802Z,43.4
2022-09-25T13:00:34.817Z,42.1
2022-09-25T13:01:34.923Z,41.7
2022-09-25T13:02:34.787Z,42.9
2022-09-25T13:03:34.763Z,41.6
2022-09-25T13:04:34.777Z,41.2
2022-09-25T13:05:34.759Z,41.3
2022-09-25T13:06:34.756Z,43.3
2022-09-25T13:07:34.795Z,44.3
2022-09-25T13:08:36.228Z,44.9
2022-09-25T13:09:34.778Z,44.6
2022-09-25T13:10:35.047Z,44.5
2022-09-25T13:11:36.147Z,41.7
2022-09-25T13:12:37.104Z,41.4
2022-09-25T13:13:34.763Z,39.8
2022-09-25T13:14:34.787Z,39
2022-09-25T13:15:34.808Z,38.8
2022-09-25T13:16:34.820Z,37.2
2022-09-25T13:17:34.774Z,37.1
2022-09-25T13:18:34.802Z,37.3
2022-09-25T13:19:34.770Z,39.8
2022-09-25T13:20:34.762Z,41.5
2022-09-25T13:21:34.749Z,44.4
2022-09-25T13:22:34.820Z,46.2
2022-09-25T13:23:34.807Z,47.9
2022-09-25T13:24:34.759Z,45
2022-09-25T13:25:34.836Z,44.2
2022-09-25T13:26:34.771Z,46.8
2022-09-25T13:27:37.612Z,47.4
2022-09-25T13:28:34.781Z,48.2
2022-09-25T13:29:34.773Z,50.5
2022-09-25T13:30:34.933Z,51.9
2022-09-25T13:31:34.867Z,51.9
2022-09-25T13:32:34.880Z,52.6
2022-09-25T13:33:34.767Z,49.2
2022-09-25T13:34:34.761Z,46.6
2022-09-25T13:35:34.783Z,47.4
2022-09-25T13:36:34.769Z,43.7
2022-09-25T13:37:34.788Z,43.5
2022-09-25T13:38:34.808Z,40.2
2022-09-25T13:39:34.809Z,41.5
2022-09-25T13:40:34.814Z,38.2
2022-09-25T13:41:34.773Z,38.7
2022-09-25T13:42:34.777Z,35.4
2022-09-25T13:43:38.206Z,37.3
2022-09-25T13:44:34.773Z,35.3
2022-09-25T13:45:34.899Z,35.2